CES5344 ZGSZ-ZSSS
Flight info
| Callsign | CES5344 |
|---|---|
| Flight time | 1h 38m |
| Altitude | 41100 |
| Route | IDUMA1 IDUMA W41 ISLOM G471 XEBUL DCT NUVGA DCT VETIB W155 TEBON A470 LJG B221 SHZ G204 AND AND72A |
| Aircraft | A359/H-SDE2E3GHIJ3J4J5LM1ORWXY/LB1D1 |
Departure
| Time | 2026-04-23 08:50 |
|---|---|
| Airport | Shenzhen Bao'an International Airport (ZGSZ) |
Arrival
| Time | 2026-04-23 10:28 |
|---|---|
| Airport | Shanghai Hongqiao International Airport (ZSSS) |
| Time | Latitude | Longitude | Altitude | Speed | Heading |
|---|---|---|---|---|---|
| 2026-04-23 08:25 | 22.63155 | 113.80718 | 22 ft | 0 kts | 243° |
| 2026-04-23 08:42 | 22.63164 | 113.80739 | 24 ft | 4 kts | 250° |
| 2026-04-23 08:42 | 22.63172 | 113.80766 | 24 ft | 4 kts | 239° |
| 2026-04-23 08:42 | 22.63184 | 113.80781 | 25 ft | 3 kts | 208° |
| 2026-04-23 08:43 | 22.63204 | 113.80789 | 24 ft | 4 kts | 174° |
| 2026-04-23 08:43 | 22.63226 | 113.80782 | 24 ft | 4 kts | 149° |
| 2026-04-23 08:43 | 22.63242 | 113.80772 | 25 ft | 1 kts | 152° |
| 2026-04-23 08:43 | 22.63244 | 113.80770 | 25 ft | 0 kts | 152° |
| 2026-04-23 08:46 | 22.63243 | 113.80771 | 25 ft | 1 kts | 152° |
| 2026-04-23 08:46 | 22.63219 | 113.80788 | 25 ft | 8 kts | 148° |
| 2026-04-23 08:46 | 22.63155 | 113.80827 | 22 ft | 13 kts | 153° |
| 2026-04-23 08:47 | 22.63097 | 113.80905 | 22 ft | 14 kts | 92° |
| 2026-04-23 08:47 | 22.63107 | 113.81028 | 22 ft | 19 kts | 82° |
| 2026-04-23 08:47 | 22.63100 | 113.81179 | 22 ft | 21 kts | 128° |
| 2026-04-23 08:47 | 22.62971 | 113.81264 | 21 ft | 24 kts | 153° |
| 2026-04-23 08:48 | 22.62809 | 113.81353 | 21 ft | 28 kts | 153° |
| 2026-04-23 08:48 | 22.62623 | 113.81456 | 21 ft | 32 kts | 153° |
| 2026-04-23 08:48 | 22.62477 | 113.81572 | 21 ft | 22 kts | 94° |
| 2026-04-23 08:48 | 22.62538 | 113.81726 | 21 ft | 24 kts | 64° |
| 2026-04-23 08:49 | 22.62673 | 113.81751 | 21 ft | 23 kts | 333° |
| 2026-04-23 08:49 | 22.62915 | 113.81618 | 22 ft | 73 kts | 333° |
| 2026-04-23 08:49 | 22.63587 | 113.81249 | 22 ft | 142 kts | 333° |
| 2026-04-23 08:49 | 22.64600 | 113.80689 | 361 ft | 174 kts | 334° |
| 2026-04-23 08:50 | 22.65664 | 113.80110 | 1360 ft | 163 kts | 333° |
| 2026-04-23 08:50 | 22.66629 | 113.79589 | 2400 ft | 150 kts | 332° |
| 2026-04-23 08:50 | 22.67597 | 113.79070 | 2963 ft | 161 kts | 329° |
| 2026-04-23 08:50 | 22.68658 | 113.78490 | 3351 ft | 183 kts | 328° |
| 2026-04-23 08:51 | 22.69892 | 113.77801 | 3610 ft | 215 kts | 328° |
| 2026-04-23 08:51 | 22.71287 | 113.77021 | 4085 ft | 234 kts | 328° |
| 2026-04-23 08:51 | 22.72822 | 113.76300 | 4773 ft | 249 kts | 341° |
| 2026-04-23 08:51 | 22.74592 | 113.76389 | 5509 ft | 266 kts | 16° |
| 2026-04-23 08:52 | 22.76120 | 113.77541 | 6319 ft | 275 kts | 46° |
| 2026-04-23 08:52 | 22.77299 | 113.79153 | 7140 ft | 279 kts | 52° |
| 2026-04-23 08:52 | 22.78501 | 113.80868 | 7987 ft | 284 kts | 51° |
| 2026-04-23 08:52 | 22.79731 | 113.82568 | 8870 ft | 290 kts | 50° |
| 2026-04-23 08:53 | 22.80993 | 113.84257 | 9746 ft | 294 kts | 49° |
| 2026-04-23 08:53 | 22.82316 | 113.85975 | 10497 ft | 303 kts | 48° |
| 2026-04-23 08:53 | 22.83735 | 113.87784 | 10903 ft | 326 kts | 48° |
| 2026-04-23 08:53 | 22.85260 | 113.89706 | 11290 ft | 348 kts | 47° |
| 2026-04-23 08:54 | 22.86886 | 113.91745 | 11684 ft | 368 kts | 47° |
| 2026-04-23 08:54 | 22.88745 | 113.93743 | 12042 ft | 384 kts | 36° |
| 2026-04-23 08:54 | 22.91062 | 113.95201 | 12567 ft | 388 kts | 18° |
| 2026-04-23 08:54 | 22.93657 | 113.96028 | 13220 ft | 390 kts | 9° |
| 2026-04-23 08:55 | 22.96339 | 113.96605 | 13843 ft | 395 kts | 6° |
| 2026-04-23 08:55 | 22.99064 | 113.97058 | 14455 ft | 398 kts | 4° |
| 2026-04-23 08:55 | 23.01820 | 113.97465 | 15109 ft | 401 kts | 3° |
| 2026-04-23 08:55 | 23.04591 | 113.97870 | 15763 ft | 403 kts | 4° |
| 2026-04-23 08:56 | 23.07381 | 113.98295 | 16415 ft | 405 kts | 4° |
| 2026-04-23 08:56 | 23.10180 | 113.98746 | 17060 ft | 408 kts | 4° |
| 2026-04-23 08:56 | 23.12992 | 113.99219 | 17712 ft | 410 kts | 5° |
| 2026-04-23 08:56 | 23.15813 | 113.99706 | 18324 ft | 412 kts | 5° |
| 2026-04-23 08:57 | 23.18659 | 114.00204 | 18830 ft | 416 kts | 5° |
| 2026-04-23 08:57 | 23.21526 | 114.00707 | 19315 ft | 419 kts | 5° |
| 2026-04-23 08:57 | 23.24381 | 114.01211 | 19825 ft | 423 kts | 5° |
| 2026-04-23 08:57 | 23.27269 | 114.01963 | 20323 ft | 431 kts | 13° |
| 2026-04-23 08:58 | 23.30051 | 114.03267 | 20833 ft | 441 kts | 25° |
| 2026-04-23 08:58 | 23.32660 | 114.05082 | 21295 ft | 448 kts | 31° |
| 2026-04-23 08:58 | 23.35177 | 114.07112 | 21823 ft | 453 kts | 34° |
| 2026-04-23 08:58 | 23.37651 | 114.09254 | 22323 ft | 457 kts | 35° |
| 2026-04-23 08:59 | 23.40124 | 114.11452 | 22804 ft | 461 kts | 36° |
| 2026-04-23 08:59 | 23.42619 | 114.13675 | 23310 ft | 465 kts | 35° |
| 2026-04-23 08:59 | 23.45142 | 114.15899 | 23855 ft | 468 kts | 35° |
| 2026-04-23 08:59 | 23.47698 | 114.18127 | 24255 ft | 473 kts | 34° |
| 2026-04-23 09:00 | 23.50283 | 114.20360 | 24659 ft | 477 kts | 34° |
| 2026-04-23 09:00 | 23.52893 | 114.22605 | 25112 ft | 480 kts | 34° |
| 2026-04-23 09:00 | 23.55533 | 114.24871 | 25579 ft | 484 kts | 34° |
| 2026-04-23 09:00 | 23.58184 | 114.27146 | 26069 ft | 487 kts | 34° |
| 2026-04-23 09:01 | 23.60862 | 114.29445 | 26547 ft | 492 kts | 33° |
| 2026-04-23 09:01 | 23.63557 | 114.31762 | 27055 ft | 496 kts | 33° |
| 2026-04-23 09:01 | 23.66289 | 114.34082 | 27583 ft | 500 kts | 33° |
| 2026-04-23 09:01 | 23.69074 | 114.36384 | 28033 ft | 506 kts | 32° |
| 2026-04-23 09:02 | 23.71908 | 114.38693 | 28532 ft | 509 kts | 32° |
| 2026-04-23 09:02 | 23.74759 | 114.41002 | 29028 ft | 513 kts | 31° |
| 2026-04-23 09:02 | 23.77639 | 114.43335 | 29427 ft | 518 kts | 32° |
| 2026-04-23 09:02 | 23.80542 | 114.45694 | 29872 ft | 522 kts | 31° |
| 2026-04-23 09:03 | 23.83468 | 114.48083 | 30338 ft | 527 kts | 32° |
| 2026-04-23 09:03 | 23.86414 | 114.50490 | 30791 ft | 530 kts | 32° |
| 2026-04-23 09:03 | 23.89378 | 114.52913 | 31236 ft | 534 kts | 32° |
| 2026-04-23 09:03 | 23.92317 | 114.55323 | 31648 ft | 537 kts | 32° |
| 2026-04-23 09:04 | 23.95312 | 114.57783 | 32075 ft | 541 kts | 32° |
| 2026-04-23 09:04 | 23.98337 | 114.60270 | 32493 ft | 545 kts | 32° |
| 2026-04-23 09:04 | 24.01376 | 114.62765 | 32912 ft | 547 kts | 31° |
| 2026-04-23 09:04 | 24.04426 | 114.65276 | 33256 ft | 549 kts | 31° |
| 2026-04-23 09:05 | 24.07475 | 114.67787 | 33726 ft | 548 kts | 31° |
| 2026-04-23 09:05 | 24.09488 | 114.69446 | 34019 ft | 547 kts | 31° |
| 2026-04-23 09:05 | 24.13545 | 114.72791 | 34526 ft | 546 kts | 31° |
| 2026-04-23 09:05 | 24.16580 | 114.75293 | 34864 ft | 546 kts | 31° |
| 2026-04-23 09:06 | 24.18585 | 114.76964 | 35080 ft | 548 kts | 33° |
| 2026-04-23 09:06 | 24.21420 | 114.79792 | 35377 ft | 555 kts | 42° |
| 2026-04-23 09:06 | 24.23852 | 114.83104 | 35691 ft | 562 kts | 53° |
| 2026-04-23 09:06 | 24.25736 | 114.86880 | 35985 ft | 567 kts | 65° |
| 2026-04-23 09:07 | 24.26933 | 114.90997 | 36452 ft | 568 kts | 77° |
| 2026-04-23 09:07 | 24.27413 | 114.95281 | 36801 ft | 566 kts | 90° |
| 2026-04-23 09:07 | 24.27282 | 114.99576 | 37172 ft | 563 kts | 96° |
| 2026-04-23 09:07 | 24.26965 | 115.03846 | 37551 ft | 561 kts | 98° |
| 2026-04-23 09:08 | 24.26570 | 115.08092 | 37951 ft | 559 kts | 98° |
| 2026-04-23 09:08 | 24.26151 | 115.12323 | 38320 ft | 558 kts | 99° |
| 2026-04-23 09:08 | 24.25742 | 115.16491 | 38668 ft | 556 kts | 98° |
| 2026-04-23 09:08 | 24.25338 | 115.20751 | 38955 ft | 556 kts | 98° |
| 2026-04-23 09:09 | 24.24952 | 115.24967 | 39221 ft | 555 kts | 98° |
| 2026-04-23 09:09 | 24.24577 | 115.29172 | 39481 ft | 555 kts | 98° |
| 2026-04-23 09:09 | 24.24207 | 115.33382 | 39725 ft | 554 kts | 97° |
| 2026-04-23 09:09 | 24.23840 | 115.37584 | 39955 ft | 554 kts | 97° |
| 2026-04-23 09:10 | 24.23473 | 115.41782 | 40197 ft | 554 kts | 97° |
| 2026-04-23 09:10 | 24.22732 | 115.50183 | 40637 ft | 554 kts | 97° |
| 2026-04-23 09:10 | 24.22358 | 115.54385 | 40838 ft | 554 kts | 97° |
| 2026-04-23 09:11 | 24.21982 | 115.58580 | 41002 ft | 555 kts | 97° |
| 2026-04-23 09:11 | 24.21225 | 115.66977 | 41030 ft | 553 kts | 97° |
| 2026-04-23 09:12 | 24.20465 | 115.75355 | 41033 ft | 553 kts | 97° |
| 2026-04-23 09:12 | 24.19696 | 115.83763 | 41037 ft | 553 kts | 97° |
| 2026-04-23 09:13 | 24.18930 | 115.92087 | 41033 ft | 553 kts | 97° |
| 2026-04-23 09:13 | 24.18151 | 116.00511 | 41033 ft | 552 kts | 97° |
| 2026-04-23 09:14 | 24.17407 | 116.08814 | 41026 ft | 551 kts | 97° |
| 2026-04-23 09:14 | 24.16916 | 116.17194 | 41025 ft | 551 kts | 95° |
| 2026-04-23 09:15 | 24.16607 | 116.25578 | 41016 ft | 551 kts | 94° |
| 2026-04-23 09:15 | 24.16320 | 116.33961 | 41016 ft | 550 kts | 94° |
| 2026-04-23 09:16 | 24.16015 | 116.42321 | 41013 ft | 550 kts | 94° |
| 2026-04-23 09:16 | 24.15696 | 116.50688 | 41007 ft | 549 kts | 94° |
| 2026-04-23 09:17 | 24.15383 | 116.59036 | 41002 ft | 549 kts | 94° |
| 2026-04-23 09:17 | 24.15057 | 116.67392 | 40996 ft | 549 kts | 94° |
| 2026-04-23 09:18 | 24.14717 | 116.75734 | 40995 ft | 549 kts | 94° |
| 2026-04-23 09:18 | 24.14372 | 116.84080 | 40986 ft | 548 kts | 94° |
| 2026-04-23 09:19 | 24.14148 | 116.92418 | 40986 ft | 548 kts | 92° |
| 2026-04-23 09:19 | 24.14099 | 117.00707 | 40976 ft | 548 kts | 91° |
| 2026-04-23 09:20 | 24.14075 | 117.09052 | 40959 ft | 547 kts | 91° |
| 2026-04-23 09:20 | 24.14031 | 117.17377 | 40954 ft | 547 kts | 91° |
| 2026-04-23 09:21 | 24.13969 | 117.25709 | 40947 ft | 547 kts | 91° |
| 2026-04-23 09:21 | 24.13899 | 117.34043 | 40936 ft | 548 kts | 91° |
| 2026-04-23 09:22 | 24.14073 | 117.42392 | 40930 ft | 548 kts | 84° |
| 2026-04-23 09:22 | 24.15033 | 117.50671 | 40922 ft | 549 kts | 82° |
| 2026-04-23 09:23 | 24.16126 | 117.58946 | 40917 ft | 548 kts | 80° |
| 2026-04-23 09:23 | 24.18303 | 117.66889 | 40911 ft | 543 kts | 62° |
| 2026-04-23 09:23 | 24.20205 | 117.70428 | 40909 ft | 537 kts | 50° |
| 2026-04-23 09:24 | 24.22488 | 117.73665 | 40912 ft | 535 kts | 46° |
| 2026-04-23 09:24 | 24.27397 | 117.79774 | 40906 ft | 534 kts | 43° |
| 2026-04-23 09:25 | 24.32428 | 117.85763 | 40910 ft | 534 kts | 43° |
| 2026-04-23 09:25 | 24.37311 | 117.91622 | 40913 ft | 535 kts | 43° |
| 2026-04-23 09:26 | 24.42334 | 117.97665 | 40924 ft | 536 kts | 43° |
| 2026-04-23 09:26 | 24.47330 | 118.03748 | 40925 ft | 537 kts | 43° |
| 2026-04-23 09:27 | 24.52304 | 118.09795 | 40934 ft | 537 kts | 42° |
| 2026-04-23 09:27 | 24.57447 | 118.15743 | 40929 ft | 537 kts | 41° |
| 2026-04-23 09:28 | 24.62643 | 118.21648 | 40927 ft | 537 kts | 41° |
| 2026-04-23 09:28 | 24.67845 | 118.27560 | 40915 ft | 538 kts | 41° |
| 2026-04-23 09:29 | 24.73054 | 118.33492 | 40917 ft | 539 kts | 41° |
| 2026-04-23 09:29 | 24.78261 | 118.39438 | 40913 ft | 540 kts | 41° |
| 2026-04-23 09:30 | 24.83474 | 118.45392 | 40919 ft | 540 kts | 41° |
| 2026-04-23 09:30 | 24.88691 | 118.51361 | 40922 ft | 541 kts | 41° |
| 2026-04-23 09:31 | 24.93910 | 118.57344 | 40921 ft | 542 kts | 41° |
| 2026-04-23 09:31 | 24.99132 | 118.63339 | 40927 ft | 542 kts | 41° |
| 2026-04-23 09:32 | 25.04349 | 118.69358 | 40937 ft | 544 kts | 41° |
| 2026-04-23 09:32 | 25.09505 | 118.75499 | 40942 ft | 546 kts | 42° |
| 2026-04-23 09:33 | 25.14602 | 118.81667 | 40942 ft | 547 kts | 42° |
| 2026-04-23 09:33 | 25.19733 | 118.87891 | 40940 ft | 548 kts | 42° |
| 2026-04-23 09:34 | 25.24874 | 118.94124 | 40945 ft | 549 kts | 41° |
| 2026-04-23 09:34 | 25.30044 | 119.00344 | 40943 ft | 550 kts | 41° |
| 2026-04-23 09:35 | 25.35312 | 119.06486 | 40949 ft | 550 kts | 40° |
| 2026-04-23 09:35 | 25.40610 | 119.12600 | 40955 ft | 551 kts | 40° |
| 2026-04-23 09:36 | 25.45913 | 119.18725 | 40961 ft | 551 kts | 40° |
| 2026-04-23 09:36 | 25.51216 | 119.24868 | 40965 ft | 552 kts | 40° |
| 2026-04-23 09:37 | 25.56489 | 119.30990 | 40974 ft | 553 kts | 40° |
| 2026-04-23 09:37 | 25.61795 | 119.37162 | 40978 ft | 554 kts | 40° |
| 2026-04-23 09:38 | 25.67190 | 119.43250 | 40986 ft | 548 kts | 34° |
| 2026-04-23 09:38 | 25.70209 | 119.45759 | 40990 ft | 537 kts | 23° |
| 2026-04-23 09:38 | 25.73485 | 119.47637 | 40996 ft | 522 kts | 12° |
| 2026-04-23 09:39 | 25.80277 | 119.50286 | 41006 ft | 516 kts | 8° |
| 2026-04-23 09:39 | 25.87133 | 119.52611 | 41011 ft | 515 kts | 7° |
| 2026-04-23 09:40 | 25.93994 | 119.54909 | 41012 ft | 515 kts | 7° |
| 2026-04-23 09:40 | 26.00848 | 119.57249 | 41009 ft | 515 kts | 7° |
| 2026-04-23 09:41 | 26.07684 | 119.59609 | 41009 ft | 515 kts | 7° |
| 2026-04-23 09:41 | 26.14479 | 119.61963 | 41008 ft | 514 kts | 7° |
| 2026-04-23 09:42 | 26.21149 | 119.65189 | 41011 ft | 534 kts | 20° |
| 2026-04-23 09:42 | 26.27556 | 119.69454 | 41007 ft | 538 kts | 22° |
| 2026-04-23 09:43 | 26.33890 | 119.73934 | 41001 ft | 539 kts | 23° |
| 2026-04-23 09:43 | 26.40201 | 119.78435 | 41006 ft | 538 kts | 23° |
| 2026-04-23 09:44 | 26.46527 | 119.82913 | 40995 ft | 538 kts | 22° |
| 2026-04-23 09:44 | 26.52861 | 119.87363 | 41001 ft | 538 kts | 22° |
| 2026-04-23 09:45 | 26.59211 | 119.91825 | 41006 ft | 539 kts | 22° |
| 2026-04-23 09:45 | 26.65556 | 119.96292 | 41006 ft | 539 kts | 22° |
| 2026-04-23 09:46 | 26.71870 | 120.00744 | 41003 ft | 540 kts | 22° |
| 2026-04-23 09:46 | 26.78228 | 120.05235 | 41009 ft | 541 kts | 22° |
| 2026-04-23 09:47 | 26.84592 | 120.09738 | 41009 ft | 542 kts | 22° |
| 2026-04-23 09:47 | 26.90969 | 120.14262 | 41007 ft | 542 kts | 22° |
| 2026-04-23 09:48 | 26.97354 | 120.18799 | 41011 ft | 543 kts | 22° |
| 2026-04-23 09:48 | 27.03729 | 120.23335 | 41013 ft | 543 kts | 22° |
| 2026-04-23 09:49 | 27.10112 | 120.27877 | 41015 ft | 543 kts | 22° |
| 2026-04-23 09:49 | 27.16493 | 120.32388 | 41014 ft | 543 kts | 22° |
| 2026-04-23 09:50 | 27.22897 | 120.36908 | 41018 ft | 543 kts | 22° |
| 2026-04-23 09:50 | 27.29244 | 120.41398 | 41017 ft | 543 kts | 22° |
| 2026-04-23 09:51 | 27.35635 | 120.45922 | 41020 ft | 542 kts | 22° |
| 2026-04-23 09:51 | 27.42045 | 120.50419 | 41018 ft | 543 kts | 21° |
| 2026-04-23 09:52 | 27.48444 | 120.54902 | 41012 ft | 543 kts | 21° |
| 2026-04-23 09:52 | 27.54872 | 120.59322 | 41018 ft | 536 kts | 17° |
| 2026-04-23 09:52 | 27.58239 | 120.61013 | 41017 ft | 521 kts | 8° |
| 2026-04-23 09:53 | 27.61680 | 120.62051 | 41023 ft | 503 kts | 358° |
| 2026-04-23 09:53 | 27.67381 | 120.62687 | 41019 ft | 491 kts | 351° |
| 2026-04-23 09:54 | 27.74185 | 120.63005 | 41023 ft | 489 kts | 349° |
| 2026-04-23 09:54 | 27.81014 | 120.63419 | 41025 ft | 493 kts | 351° |
| 2026-04-23 09:55 | 27.87876 | 120.64030 | 41014 ft | 496 kts | 352° |
| 2026-04-23 09:55 | 27.94767 | 120.64743 | 41023 ft | 498 kts | 353° |
| 2026-04-23 09:56 | 28.01670 | 120.65472 | 41028 ft | 498 kts | 352° |
| 2026-04-23 09:56 | 28.08592 | 120.66174 | 41026 ft | 499 kts | 352° |
| 2026-04-23 09:57 | 28.15519 | 120.66880 | 41029 ft | 500 kts | 352° |
| 2026-04-23 09:57 | 28.22459 | 120.67574 | 41032 ft | 501 kts | 352° |
| 2026-04-23 09:58 | 28.29355 | 120.68255 | 41037 ft | 501 kts | 352° |
| 2026-04-23 09:58 | 28.36309 | 120.68943 | 41043 ft | 502 kts | 352° |
| 2026-04-23 09:59 | 28.43261 | 120.69628 | 41048 ft | 502 kts | 352° |
| 2026-04-23 09:59 | 28.50217 | 120.70320 | 41052 ft | 502 kts | 352° |
| 2026-04-23 10:00 | 28.57173 | 120.71018 | 41044 ft | 502 kts | 352° |
| 2026-04-23 10:00 | 28.64131 | 120.71721 | 41052 ft | 502 kts | 352° |
| 2026-04-23 10:01 | 28.71085 | 120.72433 | 41066 ft | 502 kts | 352° |
| 2026-04-23 10:01 | 28.78045 | 120.73188 | 41067 ft | 503 kts | 352° |
| 2026-04-23 10:02 | 28.85015 | 120.73952 | 41072 ft | 502 kts | 352° |
| 2026-04-23 10:02 | 28.91927 | 120.74641 | 41075 ft | 502 kts | 351° |
| 2026-04-23 10:03 | 28.98929 | 120.75318 | 41076 ft | 502 kts | 351° |
| 2026-04-23 10:03 | 29.05894 | 120.76006 | 41072 ft | 502 kts | 352° |
| 2026-04-23 10:04 | 29.12836 | 120.76707 | 40514 ft | 500 kts | 352° |
| 2026-04-23 10:04 | 29.16271 | 120.77053 | 39713 ft | 504 kts | 352° |
| 2026-04-23 10:04 | 29.19785 | 120.77401 | 38903 ft | 509 kts | 352° |
| 2026-04-23 10:04 | 29.23331 | 120.77754 | 38088 ft | 513 kts | 352° |
| 2026-04-23 10:05 | 29.26884 | 120.78113 | 37410 ft | 512 kts | 352° |
| 2026-04-23 10:05 | 29.30438 | 120.78478 | 36745 ft | 512 kts | 352° |
| 2026-04-23 10:05 | 29.33977 | 120.78844 | 36092 ft | 511 kts | 352° |
| 2026-04-23 10:05 | 29.37517 | 120.79207 | 35413 ft | 511 kts | 352° |
| 2026-04-23 10:06 | 29.41075 | 120.79569 | 34673 ft | 513 kts | 352° |
| 2026-04-23 10:06 | 29.44637 | 120.79932 | 33890 ft | 514 kts | 352° |
| 2026-04-23 10:06 | 29.48205 | 120.80290 | 33037 ft | 516 kts | 352° |
| 2026-04-23 10:06 | 29.51790 | 120.80643 | 32219 ft | 516 kts | 353° |
| 2026-04-23 10:07 | 29.55366 | 120.80994 | 31393 ft | 517 kts | 354° |
| 2026-04-23 10:07 | 29.58967 | 120.81639 | 30522 ft | 533 kts | 4° |
| 2026-04-23 10:07 | 29.62514 | 120.83093 | 29510 ft | 550 kts | 16° |
| 2026-04-23 10:07 | 29.65936 | 120.84974 | 28692 ft | 551 kts | 19° |
| 2026-04-23 10:08 | 29.69364 | 120.87045 | 28048 ft | 547 kts | 21° |
| 2026-04-23 10:08 | 29.72638 | 120.89108 | 27408 ft | 542 kts | 21° |
| 2026-04-23 10:08 | 29.75930 | 120.91211 | 26743 ft | 538 kts | 22° |
| 2026-04-23 10:09 | 29.82423 | 120.95331 | 25451 ft | 528 kts | 22° |
| 2026-04-23 10:09 | 29.85633 | 120.97341 | 24801 ft | 524 kts | 22° |
| 2026-04-23 10:09 | 29.88826 | 120.99326 | 24163 ft | 519 kts | 22° |
| 2026-04-23 10:09 | 29.91998 | 121.01290 | 23519 ft | 515 kts | 22° |
| 2026-04-23 10:10 | 29.95146 | 121.03238 | 22801 ft | 510 kts | 22° |
| 2026-04-23 10:10 | 29.98248 | 121.05160 | 22145 ft | 503 kts | 22° |
| 2026-04-23 10:10 | 30.01321 | 121.07060 | 21493 ft | 497 kts | 22° |
| 2026-04-23 10:10 | 30.04349 | 121.08931 | 20849 ft | 490 kts | 22° |
| 2026-04-23 10:11 | 30.07335 | 121.10777 | 20204 ft | 484 kts | 23° |
| 2026-04-23 10:11 | 30.10287 | 121.12603 | 19553 ft | 479 kts | 23° |
| 2026-04-23 10:11 | 30.13205 | 121.14411 | 18910 ft | 473 kts | 23° |
| 2026-04-23 10:11 | 30.16093 | 121.16202 | 18251 ft | 468 kts | 23° |
| 2026-04-23 10:12 | 30.18950 | 121.17974 | 17525 ft | 463 kts | 24° |
| 2026-04-23 10:12 | 30.21762 | 121.19722 | 16852 ft | 456 kts | 24° |
| 2026-04-23 10:12 | 30.24488 | 121.21577 | 16187 ft | 454 kts | 32° |
| 2026-04-23 10:12 | 30.26765 | 121.24103 | 15507 ft | 454 kts | 49° |
| 2026-04-23 10:13 | 30.28566 | 121.27086 | 14806 ft | 450 kts | 55° |
| 2026-04-23 10:13 | 30.30252 | 121.30116 | 14132 ft | 445 kts | 55° |
| 2026-04-23 10:13 | 30.31919 | 121.33107 | 13423 ft | 440 kts | 55° |
| 2026-04-23 10:13 | 30.33577 | 121.36053 | 12713 ft | 433 kts | 55° |
| 2026-04-23 10:14 | 30.35349 | 121.38767 | 12016 ft | 423 kts | 44° |
| 2026-04-23 10:14 | 30.37660 | 121.40773 | 11317 ft | 411 kts | 24° |
| 2026-04-23 10:14 | 30.40303 | 121.41718 | 10989 ft | 388 kts | 4° |
| 2026-04-23 10:14 | 30.42916 | 121.41658 | 10767 ft | 366 kts | 351° |
| 2026-04-23 10:15 | 30.45369 | 121.41297 | 10639 ft | 347 kts | 349° |
| 2026-04-23 10:15 | 30.47707 | 121.40950 | 10514 ft | 330 kts | 349° |
| 2026-04-23 10:15 | 30.49925 | 121.40648 | 10389 ft | 315 kts | 350° |
| 2026-04-23 10:15 | 30.52063 | 121.40380 | 10261 ft | 301 kts | 350° |
| 2026-04-23 10:16 | 30.54101 | 121.40141 | 10125 ft | 289 kts | 351° |
| 2026-04-23 10:16 | 30.56089 | 121.39916 | 9871 ft | 284 kts | 351° |
| 2026-04-23 10:16 | 30.58067 | 121.39697 | 9518 ft | 287 kts | 351° |
| 2026-04-23 10:16 | 30.60056 | 121.39482 | 9162 ft | 286 kts | 352° |
| 2026-04-23 10:17 | 30.62029 | 121.39273 | 8812 ft | 284 kts | 352° |
| 2026-04-23 10:17 | 30.63993 | 121.39067 | 8460 ft | 282 kts | 352° |
| 2026-04-23 10:17 | 30.65937 | 121.38865 | 8107 ft | 280 kts | 352° |
| 2026-04-23 10:17 | 30.67871 | 121.38663 | 7757 ft | 278 kts | 352° |
| 2026-04-23 10:18 | 30.69790 | 121.38463 | 7411 ft | 276 kts | 353° |
| 2026-04-23 10:18 | 30.71693 | 121.38265 | 7063 ft | 274 kts | 353° |
| 2026-04-23 10:18 | 30.73582 | 121.38069 | 6712 ft | 271 kts | 353° |
| 2026-04-23 10:18 | 30.75455 | 121.37874 | 6369 ft | 269 kts | 353° |
| 2026-04-23 10:19 | 30.77287 | 121.37682 | 6006 ft | 267 kts | 353° |
| 2026-04-23 10:19 | 30.79131 | 121.37490 | 5655 ft | 265 kts | 353° |
| 2026-04-23 10:19 | 30.80958 | 121.37299 | 5314 ft | 263 kts | 354° |
| 2026-04-23 10:19 | 30.82768 | 121.37110 | 5036 ft | 262 kts | 354° |
| 2026-04-23 10:20 | 30.84593 | 121.36918 | 4740 ft | 261 kts | 354° |
| 2026-04-23 10:20 | 30.86389 | 121.36673 | 4440 ft | 259 kts | 353° |
| 2026-04-23 10:20 | 30.88163 | 121.36397 | 4221 ft | 252 kts | 352° |
| 2026-04-23 10:20 | 30.89655 | 121.36151 | 4100 ft | 242 kts | 352° |
| 2026-04-23 10:21 | 30.90512 | 121.36007 | 4038 ft | 236 kts | 352° |
| 2026-04-23 10:22 | 30.92103 | 121.35732 | 3899 ft | 226 kts | 352° |
| 2026-04-23 10:22 | 30.93601 | 121.35309 | 3753 ft | 216 kts | 346° |
| 2026-04-23 10:22 | 30.94999 | 121.35019 | 3637 ft | 212 kts | 355° |
| 2026-04-23 10:22 | 30.96420 | 121.34947 | 3538 ft | 206 kts | 358° |
| 2026-04-23 10:23 | 30.97822 | 121.34883 | 3419 ft | 199 kts | 358° |
| 2026-04-23 10:23 | 30.99179 | 121.34817 | 3309 ft | 191 kts | 357° |
| 2026-04-23 10:23 | 31.00481 | 121.34735 | 3172 ft | 184 kts | 357° |
| 2026-04-23 10:23 | 31.01741 | 121.34645 | 3063 ft | 181 kts | 356° |
| 2026-04-23 10:24 | 31.02974 | 121.34552 | 2983 ft | 177 kts | 356° |
| 2026-04-23 10:24 | 31.04204 | 121.34464 | 2860 ft | 177 kts | 357° |
| 2026-04-23 10:24 | 31.05429 | 121.34392 | 2643 ft | 175 kts | 357° |
| 2026-04-23 10:24 | 31.06606 | 121.34337 | 2422 ft | 164 kts | 358° |
| 2026-04-23 10:25 | 31.07718 | 121.34282 | 2206 ft | 158 kts | 358° |
| 2026-04-23 10:25 | 31.08790 | 121.34226 | 2000 ft | 154 kts | 358° |
| 2026-04-23 10:25 | 31.09823 | 121.34172 | 1800 ft | 143 kts | 357° |
| 2026-04-23 10:25 | 31.10786 | 121.34120 | 1602 ft | 133 kts | 356° |
| 2026-04-23 10:26 | 31.11673 | 121.34067 | 1422 ft | 124 kts | 356° |
| 2026-04-23 10:26 | 31.12527 | 121.34021 | 1265 ft | 123 kts | 356° |
| 2026-04-23 10:26 | 31.13385 | 121.33975 | 1096 ft | 124 kts | 356° |
| 2026-04-23 10:26 | 31.14252 | 121.33928 | 900 ft | 125 kts | 356° |
| 2026-04-23 10:27 | 31.15115 | 121.33881 | 715 ft | 124 kts | 356° |
| 2026-04-23 10:27 | 31.15982 | 121.33833 | 533 ft | 125 kts | 356° |
| 2026-04-23 10:27 | 31.16855 | 121.33785 | 359 ft | 126 kts | 357° |
| 2026-04-23 10:27 | 31.17736 | 121.33739 | 180 ft | 127 kts | 358° |
| 2026-04-23 10:28 | 31.18617 | 121.33695 | 35 ft | 127 kts | 357° |
| 2026-04-23 10:28 | 31.19440 | 121.33650 | 27 ft | 106 kts | 358° |
| 2026-04-23 10:28 | 31.19910 | 121.33623 | 28 ft | 29 kts | 357° |
| 2026-04-23 10:28 | 31.20097 | 121.33612 | 27 ft | 28 kts | 357° |
| 2026-04-23 10:29 | 31.20294 | 121.33558 | 27 ft | 28 kts | 334° |
| 2026-04-23 10:29 | 31.20466 | 121.33443 | 27 ft | 30 kts | 329° |
| 2026-04-23 10:29 | 31.20669 | 121.33392 | 28 ft | 30 kts | 357° |
| 2026-04-23 10:29 | 31.20889 | 121.33381 | 28 ft | 33 kts | 357° |
| 2026-04-23 10:30 | 31.21103 | 121.33368 | 28 ft | 21 kts | 357° |
| 2026-04-23 10:30 | 31.21160 | 121.33292 | 28 ft | 15 kts | 271° |
| 2026-04-23 10:30 | 31.21156 | 121.33144 | 24 ft | 21 kts | 267° |
| 2026-04-23 10:30 | 31.21133 | 121.32993 | 26 ft | 13 kts | 227° |
| 2026-04-23 10:31 | 31.21076 | 121.32985 | 28 ft | 9 kts | 174° |
| 2026-04-23 10:31 | 31.20990 | 121.32991 | 27 ft | 15 kts | 177° |
| 2026-04-23 10:31 | 31.20873 | 121.32998 | 27 ft | 20 kts | 177° |
| 2026-04-23 10:31 | 31.20728 | 121.33005 | 28 ft | 24 kts | 178° |
| 2026-04-23 10:32 | 31.20549 | 121.33014 | 28 ft | 27 kts | 177° |
| 2026-04-23 10:32 | 31.20349 | 121.33025 | 29 ft | 30 kts | 177° |
| 2026-04-23 10:32 | 31.20127 | 121.33037 | 28 ft | 33 kts | 177° |
| 2026-04-23 10:32 | 31.19888 | 121.33050 | 28 ft | 36 kts | 177° |
| 2026-04-23 10:33 | 31.19700 | 121.33059 | 27 ft | 19 kts | 185° |
| 2026-04-23 10:33 | 31.19658 | 121.33011 | 30 ft | 6 kts | 266° |
| 2026-04-23 10:33 | 31.19654 | 121.32938 | 29 ft | 12 kts | 267° |
| 2026-04-23 10:33 | 31.19650 | 121.32822 | 25 ft | 17 kts | 267° |
| 2026-04-23 10:34 | 31.19633 | 121.32686 | 30 ft | 12 kts | 235° |
| 2026-04-23 10:34 | 31.19596 | 121.32593 | 30 ft | 14 kts | 269° |
| 2026-04-23 10:34 | 31.19595 | 121.32569 | 30 ft | 2 kts | 267° |
| 2026-04-23 10:34 | 31.19594 | 121.32538 | 29 ft | 0 kts | 267° |
| 2026-04-23 10:35 | 31.19594 | 121.32537 | 29 ft | 0 kts | 267° |
| 2026-04-23 10:40 | 31.19594 | 121.32544 | 25 ft | 2 kts | 267° |
| 2026-04-23 10:40 | 31.19594 | 121.32545 | 25 ft | 0 kts | 267° |
| 2026-04-23 10:41 | 31.19594 | 121.32549 | 25 ft | 2 kts | 267° |
| 2026-04-23 10:41 | 31.19594 | 121.32548 | 25 ft | 3 kts | 267° |
| 2026-04-23 10:41 | 31.19594 | 121.32542 | 25 ft | 0 kts | 267° |
| 2026-04-23 11:00 | 31.19594 | 121.32546 | 25 ft | 3 kts | 267° |
| 2026-04-23 11:00 | 31.19596 | 121.32577 | 27 ft | 4 kts | 267° |
| 2026-04-23 11:01 | 31.19597 | 121.32608 | 30 ft | 4 kts | 267° |
| 2026-04-23 11:01 | 31.19598 | 121.32643 | 29 ft | 10 kts | 263° |
| 2026-04-23 11:01 | 31.19623 | 121.32664 | 31 ft | 6 kts | 2° |
| 2026-04-23 11:01 | 31.19693 | 121.32670 | 28 ft | 14 kts | 25° |
| 2026-04-23 11:02 | 31.19719 | 121.32757 | 25 ft | 16 kts | 86° |
| 2026-04-23 11:02 | 31.19725 | 121.32883 | 29 ft | 16 kts | 87° |
| 2026-04-23 11:02 | 31.19730 | 121.33007 | 25 ft | 16 kts | 87° |
| 2026-04-23 11:02 | 31.19731 | 121.33070 | 25 ft | 10 kts | 97° |
| 2026-04-23 11:03 | 31.19751 | 121.33061 | 31 ft | 5 kts | 351° |
| 2026-04-23 11:03 | 31.19791 | 121.33057 | 28 ft | 10 kts | 14° |
| 2026-04-23 11:03 | 31.19815 | 121.33157 | 28 ft | 16 kts | 86° |
| 2026-04-23 11:03 | 31.19821 | 121.33282 | 26 ft | 16 kts | 87° |
| 2026-04-23 11:04 | 31.19825 | 121.33404 | 25 ft | 10 kts | 87° |
| 2026-04-23 11:04 | 31.19835 | 121.33498 | 25 ft | 16 kts | 71° |
| 2026-04-23 11:04 | 31.19875 | 121.33599 | 28 ft | 4 kts | 75° |
| 2026-04-23 11:04 | 31.19882 | 121.33674 | 29 ft | 5 kts | 86° |
| 2026-04-23 11:05 | 31.19887 | 121.33789 | 29 ft | 16 kts | 86° |
| 2026-04-23 11:05 | 31.19891 | 121.33913 | 26 ft | 16 kts | 96° |
| 2026-04-23 11:05 | 31.19861 | 121.33996 | 28 ft | 7 kts | 131° |
| 2026-04-23 11:05 | 31.19831 | 121.34032 | 26 ft | 7 kts | 136° |
| 2026-04-23 11:06 | 31.19815 | 121.34050 | 29 ft | 0 kts | 137° |